Time;durP1;ratioP1;P1;durP2;ratioP2;P2;SDS_P1;SDS_P2;PMS_P1;PMS_P2;Temp;Humidity;BMP_temperature;BMP_pressure;BME280_temperature;BME280_humidity;BME280_pressure;Samples;Min_cycle;Max_cycle;Signal;HPM_P1;HPM_P2
2023/01/07 00:01:15;;;;;;;28.15;16.77;;;;;;;9.31;100.00;99553.41;5097102;28;20075;-92
2023/01/07 00:03:41;;;;;;;29.65;15.35;;;;;;;9.48;100.00;99577.13;5097060;28;20047;-92
2023/01/07 00:06:09;;;;;;;24.73;15.23;;;;;;;9.33;100.00;99541.91;5095708;28;20398;-92
2023/01/07 00:08:37;;;;;;;25.95;14.20;;;;;;;9.33;100.00;99544.53;5095576;28;20044;-93
2023/01/07 00:11:03;;;;;;;23.42;14.25;;;;;;;9.26;100.00;99529.59;5098857;28;20044;-91
2023/01/07 00:13:29;;;;;;;23.65;15.50;;;;;;;9.36;100.00;99556.91;5097586;28;20071;-92
2023/01/07 00:15:57;;;;;;;27.50;16.27;;;;;;;9.32;100.00;99549.84;5096007;28;20148;-91
2023/01/07 00:18:24;;;;;;;37.70;22.58;;;;;;;9.32;100.00;99531.28;5102570;28;20042;-92
2023/01/07 00:20:50;;;;;;;28.05;15.98;;;;;;;9.31;100.00;99549.00;5094735;28;20497;-91
2023/01/07 00:23:16;;;;;;;24.40;15.20;;;;;;;9.27;100.00;99555.22;5097466;28;20035;-90
2023/01/07 00:25:42;;;;;;;28.70;17.05;;;;;;;9.18;100.00;99534.06;5098584;28;20040;-93
2023/01/07 00:28:08;;;;;;;22.02;14.10;;;;;;;9.15;100.00;99529.69;5098225;28;21305;-91
2023/01/07 00:30:33;;;;;;;26.85;13.73;;;;;;;9.24;100.00;99548.16;5098424;28;20389;-92
2023/01/07 00:35:47;;;;;;;23.13;14.30;;;;;;;9.29;100.00;99553.44;5182800;27;20354;-92
2023/01/07 00:38:12;;;;;;;22.02;13.93;;;;;;;9.25;100.00;99547.25;5147599;27;20124;-93
2023/01/07 00:40:38;;;;;;;24.25;14.50;;;;;;;9.32;100.00;99557.81;5147594;27;20126;-92
2023/01/07 00:43:05;;;;;;;21.58;14.23;;;;;;;9.14;100.00;99535.88;5146294;27;20035;-92
2023/01/07 00:45:33;;;;;;;25.15;14.88;;;;;;;9.28;100.00;99558.75;5142344;27;20035;-93
2023/01/07 00:48:00;;;;;;;24.83;14.00;;;;;;;9.25;100.00;99546.38;5148157;27;20035;-92
2023/01/07 00:50:28;;;;;;;23.02;14.10;;;;;;;9.11;100.00;99527.03;5148231;27;20038;-93
2023/01/07 00:52:56;;;;;;;23.83;15.32;;;;;;;9.21;100.00;99542.00;5145799;27;20043;-91
2023/01/07 00:55:23;;;;;;;27.13;17.10;;;;;;;9.21;100.00;99548.19;5146295;27;20058;-93
2023/01/07 00:57:49;;;;;;;34.10;19.65;;;;;;;9.08;100.00;99520.00;5146106;27;20125;-93
2023/01/07 01:00:18;;;;;;;28.27;17.98;;;;;;;9.28;100.00;99551.66;5147358;27;20121;-92
2023/01/07 01:02:45;;;;;;;33.70;20.42;;;;;;;9.17;100.00;99530.56;5146969;27;20046;-92
2023/01/07 01:05:12;;;;;;;33.08;20.15;;;;;;;9.27;100.00;99551.69;5144653;27;20042;-91
2023/01/07 01:07:38;;;;;;;32.10;18.83;;;;;;;9.25;100.00;99546.38;5146656;27;20096;-91
2023/01/07 01:10:09;;;;;;;28.75;18.08;;;;;;;9.32;100.00;99552.50;5145587;27;20110;-92
2023/01/07 01:12:35;;;;;;;37.05;21.63;;;;;;;9.22;100.00;99536.69;5144133;27;20839;-91
2023/01/07 01:15:03;;;;;;;35.92;21.20;;;;;;;9.19;100.00;99541.13;5148465;27;20042;-92
2023/01/07 01:17:29;;;;;;;39.28;22.55;;;;;;;9.34;100.00;99562.22;5148075;27;20125;-92
2023/01/07 01:19:55;;;;;;;40.63;22.38;;;;;;;9.38;100.00;99561.28;5147538;27;20567;-92
2023/01/07 01:22:21;;;;;;;38.22;22.88;;;;;;;9.31;100.00;99551.63;5147641;27;20054;-92
2023/01/07 01:24:46;;;;;;;38.55;22.70;;;;;;;9.31;100.00;99550.78;5147839;27;20038;-94
2023/01/07 01:27:14;;;;;;;37.10;23.02;;;;;;;9.30;100.00;99559.59;5148035;27;20050;-90
2023/01/07 01:29:40;;;;;;;36.42;22.52;;;;;;;9.21;100.00;99537.56;5145973;27;20034;-92
2023/01/07 01:32:05;;;;;;;38.72;22.60;;;;;;;9.19;100.00;99542.00;5145604;27;20039;-94
2023/01/07 01:34:31;;;;;;;37.95;23.27;;;;;;;9.32;100.00;99550.72;5145654;27;20065;-93
2023/01/07 01:36:57;;;;;;;43.03;24.42;;;;;;;9.11;100.00;99522.63;5146097;27;20031;-92
2023/01/07 01:39:23;;;;;;;43.80;25.33;;;;;;;9.32;100.00;99557.81;5148136;27;20038;-92
2023/01/07 01:41:49;;;;;;;39.78;23.40;;;;;;;9.21;100.00;99539.34;5144719;27;20050;-94
2023/01/07 01:44:48;;;;;;;39.70;24.88;;;;;;;9.38;100.00;99560.44;5146481;27;20096;-92
2023/01/07 01:47:21;;;;;;;41.58;26.13;;;;;;;9.19;100.00;99549.97;5034804;28;20049;-94
2023/01/07 01:49:53;;;;;;;46.28;27.15;;;;;;;9.21;100.00;99537.56;5036390;28;20057;-93
2023/01/07 01:52:23;;;;;;;42.40;25.50;;;;;;;9.25;100.00;99551.69;5041702;28;20568;-93
2023/01/07 01:54:53;;;;;;;44.50;25.67;;;;;;;9.18;100.00;99545.56;5035464;28;20041;-92
2023/01/07 01:57:20;;;;;;;46.33;26.38;;;;;;;9.15;100.00;99535.00;5036065;28;20059;-93
2023/01/07 01:59:50;;;;;;;45.25;26.67;;;;;;;9.18;100.00;99531.41;5036372;28;20052;-94
2023/01/07 02:02:21;;;;;;;44.78;25.88;;;;;;;9.23;100.00;99543.72;5051399;28;20037;-90
2023/01/07 02:04:47;;;;;;;42.78;26.40;;;;;;;9.22;100.00;99542.00;5035248;28;20041;-93
2023/01/07 02:07:16;;;;;;;47.33;26.38;;;;;;;9.24;100.00;99537.56;5036051;28;20045;-92
2023/01/07 02:09:42;;;;;;;41.70;25.75;;;;;;;9.20;100.00;99541.13;5035914;28;20053;-93
2023/01/07 02:12:17;;;;;;;46.17;26.73;;;;;;;9.11;100.00;99520.00;5035601;28;20124;-91
2023/01/07 02:15:03;;;;;;;43.80;25.85;;;;;;;9.08;100.00;99508.50;5034685;28;20108;-94
2023/01/07 02:17:38;;;;;;;46.97;27.95;;;;;;;9.22;100.00;99535.81;5035736;28;20041;-94
2023/01/07 02:20:37;;;;;;;47.90;29.25;;;;;;;9.23;100.00;99535.78;5035118;28;20510;-94
2023/01/07 02:23:47;;;;;;;52.03;30.02;;;;;;;9.15;100.00;99519.06;5127854;27;20035;-92
2023/01/07 02:26:53;;;;;;;52.97;29.92;;;;;;;9.17;100.00;99527.00;5131093;27;20084;-94
2023/01/07 02:30:05;;;;;;;52.53;30.00;;;;;;;9.18;100.00;99531.41;5130559;27;20508;-93
2023/01/07 02:32:52;;;;;;;52.80;30.52;;;;;;;9.21;100.00;99528.72;5132328;27;20035;-92
2023/01/07 02:35:30;;;;;;;54.85;31.73;;;;;;;9.18;100.00;99536.72;5096329;27;20066;-92
2023/01/07 02:38:03;;;;;;;52.83;31.95;;;;;;;9.16;100.00;99535.88;5131897;27;20116;-92
2023/01/07 02:40:37;;;;;;;58.65;33.15;;;;;;;9.20;100.00;99525.19;5132557;27;20035;-94
2023/01/07 02:43:12;;;;;;;53.67;33.22;;;;;;;9.12;100.00;99527.03;5131539;27;20070;-93
2023/01/07 02:45:46;;;;;;;54.10;33.45;;;;;;;9.15;100.00;99536.75;5130100;27;20123;-93
2023/01/07 02:48:17;;;;;;;63.08;35.78;;;;;;;8.98;100.00;99497.13;5130313;27;20050;-93
2023/01/07 02:50:42;;;;;;;61.85;37.60;;;;;;;9.02;100.00;99514.75;5132413;27;20039;-92
2023/01/07 02:53:13;;;;;;;60.60;37.72;;;;;;;9.04;100.00;99518.25;5132674;27;20393;-93
2023/01/07 02:55:46;;;;;;;62.08;35.75;;;;;;;9.04;100.00;99508.56;5131741;27;20046;-93
2023/01/07 02:58:36;;;;;;;58.20;36.70;;;;;;;9.10;100.00;99512.03;5130332;27;20034;-93
2023/01/07 03:01:24;;;;;;;62.33;39.28;;;;;;;9.04;100.00;99512.94;5124628;27;20123;-92
2023/01/07 03:04:26;;;;;;;65.75;39.20;;;;;;;9.18;100.00;99537.59;5131064;27;20484;-93
2023/01/07 03:07:11;;;;;;;66.22;38.25;;;;;;;9.12;100.00;99523.50;5133360;27;20126;-93
2023/01/07 03:09:46;;;;;;;65.97;39.47;;;;;;;9.14;100.00;99529.69;5130411;27;20046;-93
2023/01/07 03:12:19;;;;;;;68.45;39.50;;;;;;;9.12;100.00;99520.84;5131977;27;20070;-93
2023/01/07 03:14:49;;;;;;;70.10;39.05;;;;;;;9.15;100.00;99532.34;5131488;27;20039;-93
2023/01/07 03:17:20;;;;;;;75.78;44.38;;;;;;;9.13;100.00;99534.13;5126855;27;20404;-93
2023/01/07 03:19:53;;;;;;;74.95;44.40;;;;;;;9.14;100.00;99538.53;5130331;27;20514;-92
2023/01/07 03:22:22;;;;;;;80.25;45.15;;;;;;;9.12;100.00;99528.81;5130493;27;20063;-92
2023/01/07 03:24:50;;;;;;;76.45;44.33;;;;;;;9.06;100.00;99508.50;5130441;27;20112;-92
2023/01/07 03:27:19;;;;;;;75.72;43.78;;;;;;;9.07;100.00;99512.94;5131563;27;20452;-92
2023/01/07 03:29:46;;;;;;;72.38;42.90;;;;;;;9.04;100.00;99502.34;5132497;27;20095;-92
2023/01/07 03:32:15;;;;;;;76.45;42.75;;;;;;;9.05;100.00;99514.72;5128860;27;20108;-92
2023/01/07 03:34:43;;;;;;;69.15;42.30;;;;;;;9.04;100.00;99518.25;5130572;27;20043;-93
2023/01/07 03:37:13;;;;;;;72.22;43.05;;;;;;;8.98;100.00;99521.88;5129210;27;20484;-92
2023/01/07 03:39:41;;;;;;;69.18;40.88;;;;;;;8.92;100.00;99498.03;5128756;27;20050;-94
2023/01/07 03:45:13;;;;;;;68.55;40.45;;;;;;;9.15;100.00;99521.72;5129260;27;20867;-93
2023/01/07 03:47:43;;;;;;;66.60;39.15;;;;;;;9.15;100.00;99520.81;5095348;28;20050;-93
2023/01/07 03:50:09;;;;;;;66.03;38.78;;;;;;;9.16;100.00;99517.28;5097905;28;20045;-93
2023/01/07 03:52:35;;;;;;;68.13;40.67;;;;;;;9.16;100.00;99509.34;5094145;28;20036;-94
2023/01/07 03:55:03;;;;;;;66.53;38.45;;;;;;;9.04;100.00;99486.44;5094950;28;20058;-91
2023/01/07 03:57:29;;;;;;;64.47;38.60;;;;;;;9.05;100.00;99493.50;5089169;28;20425;-94
2023/01/07 03:59:55;;;;;;;71.78;39.65;;;;;;;9.11;100.00;99501.41;5092323;28;20046;-93
2023/01/07 04:02:22;;;;;;;73.72;40.17;;;;;;;9.05;100.00;99499.69;5091183;28;20040;-94
2023/01/07 04:04:48;;;;;;;69.65;38.22;;;;;;;9.15;100.00;99508.47;5093532;28;20071;-94
2023/01/07 04:07:14;;;;;;;62.65;38.70;;;;;;;9.00;100.00;99490.91;5094228;28;20067;-93
2023/01/07 04:09:40;;;;;;;66.35;37.67;;;;;;;9.11;100.00;99509.38;5094386;28;20057;-93
2023/01/07 04:12:06;;;;;;;66.68;38.40;;;;;;;8.92;100.00;99468.88;5094782;28;20131;-93
2023/01/07 04:14:32;;;;;;;68.63;38.33;;;;;;;9.20;100.00;99513.72;5094687;28;20435;-94
2023/01/07 04:16:57;;;;;;;66.13;37.22;;;;;;;9.14;100.00;99509.34;5097582;28;20045;-93
2023/01/07 04:19:25;;;;;;;66.22;38.72;;;;;;;9.15;100.00;99507.56;5100193;28;20130;-93
2023/01/07 04:21:50;;;;;;;63.13;37.13;;;;;;;9.11;100.00;99503.16;5095812;28;20082;-93
2023/01/07 04:24:16;;;;;;;62.47;36.53;;;;;;;9.11;100.00;99495.19;5090670;28;20056;-92
2023/01/07 04:26:42;;;;;;;67.82;37.45;;;;;;;9.11;100.00;99498.75;5093070;28;20045;-91
2023/01/07 04:29:09;;;;;;;67.75;39.05;;;;;;;9.09;100.00;99503.19;5090200;28;20032;-93
2023/01/07 04:31:35;;;;;;;70.15;40.63;;;;;;;8.91;100.00;99487.44;5088890;28;20533;-91
2023/01/07 04:34:01;;;;;;;66.82;39.33;;;;;;;8.90;100.00;99469.78;5097209;28;20044;-91
2023/01/07 04:36:28;;;;;;;71.55;40.05;;;;;;;9.03;100.00;99500.59;5096672;28;20036;-91
2023/01/07 04:38:54;;;;;;;61.85;38.20;;;;;;;9.08;100.00;99496.13;5091859;28;20033;-93
2023/01/07 04:41:20;;;;;;;66.63;40.00;;;;;;;9.06;100.00;99495.25;5092588;28;20393;-93
2023/01/07 04:43:46;;;;;;;70.68;40.53;;;;;;;8.99;100.00;99488.25;5087847;28;20638;-91
2023/01/07 04:46:11;;;;;;;65.07;38.65;;;;;;;9.10;100.00;99501.41;5092248;28;20043;-91
2023/01/07 04:48:37;;;;;;;65.68;39.50;;;;;;;9.15;100.00;99500.50;5093055;28;20428;-92
2023/01/07 04:51:04;;;;;;;61.30;36.78;;;;;;;9.03;100.00;99490.88;5092776;28;20444;-91
2023/01/07 04:53:31;;;;;;;62.10;37.30;;;;;;;8.96;100.00;99485.66;5089543;28;20123;-92
2023/01/07 04:55:57;;;;;;;67.82;40.22;;;;;;;9.06;100.00;99503.22;5081514;28;20383;-91
2023/01/07 04:58:23;;;;;;;66.57;39.95;;;;;;;8.89;100.00;99473.31;5081900;28;20104;-92
2023/01/07 05:00:50;;;;;;;73.38;41.85;;;;;;;8.93;100.00;99485.66;5075133;28;20040;-92
2023/01/07 05:03:16;;;;;;;69.70;41.17;;;;;;;8.97;100.00;99504.19;5077675;28;20498;-91
2023/01/07 05:05:41;;;;;;;73.22;40.55;;;;;;;8.80;100.00;99471.63;5076296;28;20036;-92
2023/01/07 05:08:07;;;;;;;69.60;41.15;;;;;;;9.00;100.00;99503.25;5081053;28;20123;-91
2023/01/07 05:10:34;;;;;;;64.75;39.05;;;;;;;9.01;100.00;99489.13;5080308;28;20056;-93
2023/01/07 05:13:04;;;;;;;72.15;40.40;;;;;;;8.99;100.00;99483.81;5078337;28;20040;-92
2023/01/07 05:15:29;;;;;;;;;;;;;;;9.11;100.00;99511.13;5081895;28;20075;-93
2023/01/07 05:17:55;;;;;;;62.83;36.05;;;;;;;8.92;100.00;99483.91;5082352;28;19947;-91
2023/01/07 05:20:21;;;;;;;65.13;36.25;;;;;;;9.02;100.00;99501.47;5076538;28;20047;-92
2023/01/07 05:22:47;;;;;;;62.33;35.15;;;;;;;8.88;100.00;99471.56;5074619;28;20037;-91
2023/01/07 05:25:13;;;;;;;60.33;34.47;;;;;;;9.10;100.00;99512.03;5080637;28;20072;-92
2023/01/07 05:27:40;;;;;;;66.75;35.25;;;;;;;8.95;100.00;99503.31;5077130;28;20036;-93
2023/01/07 05:30:07;;;;;;;64.50;36.38;;;;;;;9.06;100.00;99505.88;5076918;28;20565;-92
2023/01/07 05:32:33;;;;;;;59.33;35.58;;;;;;;9.01;100.00;99503.25;5077799;28;20040;-92
2023/01/07 05:34:59;;;;;;;59.67;37.35;;;;;;;9.03;100.00;99512.09;5082920;28;20126;-90
2023/01/07 05:37:24;;;;;;;64.47;37.20;;;;;;;9.01;100.00;99492.66;5075634;28;20555;-93
2023/01/07 05:39:50;;;;;;;69.35;39.38;;;;;;;9.04;100.00;99486.44;5082062;28;20054;-93
2023/01/07 05:42:16;;;;;;;66.50;38.95;;;;;;;9.17;100.00;99522.59;5077945;28;20131;-93
2023/01/07 05:44:43;;;;;;;65.57;39.08;;;;;;;9.11;100.00;99514.69;5080390;28;20078;-92
2023/01/07 05:47:09;;;;;;;68.30;39.10;;;;;;;9.12;100.00;99505.81;5072793;28;20072;-92
2023/01/07 05:49:35;;;;;;;63.95;40.00;;;;;;;9.24;100.00;99529.59;5075966;28;20040;-91
2023/01/07 05:52:01;;;;;;;62.92;37.50;;;;;;;9.07;100.00;99502.34;5077666;28;20410;-92
2023/01/07 05:54:27;;;;;;;67.38;38.25;;;;;;;9.01;100.00;99500.59;5078857;28;20056;-94
2023/01/07 05:56:52;;;;;;;64.35;36.92;;;;;;;9.07;100.00;99502.34;5079480;28;20046;-90
2023/01/07 05:59:18;;;;;;;65.43;38.63;;;;;;;9.05;100.00;99491.72;5078493;28;20074;-94
2023/01/07 06:01:45;;;;;;;67.25;39.15;;;;;;;9.13;100.00;99512.91;5077113;28;20127;-93
2023/01/07 06:04:11;;;;;;;65.15;37.83;;;;;;;9.08;100.00;99512.03;5081412;28;20100;-92
2023/01/07 06:06:37;;;;;;;60.30;37.13;;;;;;;9.09;100.00;99512.94;5074650;28;20139;-91
2023/01/07 06:09:03;;;;;;;64.78;39.03;;;;;;;9.11;100.00;99519.09;5076866;28;20324;-92
2023/01/07 06:11:29;;;;;;;64.90;38.78;;;;;;;9.04;100.00;99513.88;5079075;28;20036;-94
2023/01/07 06:13:55;;;;;;;64.03;37.58;;;;;;;9.00;100.00;99506.81;5078121;28;20040;-92
2023/01/07 06:16:21;;;;;;;63.05;37.60;;;;;;;9.04;100.00;99515.59;5073765;28;20059;-92
2023/01/07 06:18:48;;;;;;;69.50;38.03;;;;;;;8.99;100.00;99506.81;5081251;28;20414;-93
2023/01/07 06:21:15;;;;;;;66.15;37.95;;;;;;;9.01;100.00;99513.88;5080594;28;20079;-92
2023/01/07 06:23:42;;;;;;;58.50;38.08;;;;;;;9.04;100.00;99516.50;5079697;28;20489;-92
2023/01/07 06:26:08;;;;;;;63.55;36.55;;;;;;;9.06;100.00;99524.44;5083222;28;20047;-93
2023/01/07 06:28:34;;;;;;;62.30;37.15;;;;;;;9.07;100.00;99523.56;5078751;28;20401;-93
2023/01/07 06:31:00;;;;;;;60.03;35.50;;;;;;;9.12;100.00;99532.34;5077675;28;20493;-91
2023/01/07 06:33:26;;;;;;;57.55;34.42;;;;;;;8.88;100.00;99491.00;5074235;28;20037;-92
2023/01/07 06:35:53;;;;;;;56.17;32.55;;;;;;;8.82;100.00;99499.00;5074310;28;20493;-94
2023/01/07 06:38:19;;;;;;;58.33;32.75;;;;;;;8.87;100.00;99510.47;5076319;28;20094;-92
2023/01/07 06:40:45;;;;;;;59.00;35.05;;;;;;;8.92;100.00;99518.38;5083067;28;20045;-92
2023/01/07 06:43:11;;;;;;;58.10;34.03;;;;;;;9.05;100.00;99533.31;5084589;28;20555;-92
2023/01/07 06:45:37;;;;;;;54.90;33.13;;;;;;;8.86;100.00;99499.88;5074913;28;20058;-93
2023/01/07 06:48:03;;;;;;;61.17;35.10;;;;;;;9.04;100.00;99537.75;5074627;28;20041;-93
2023/01/07 06:50:28;;;;;;;65.88;39.15;;;;;;;8.90;100.00;99498.94;5081403;28;20093;-92
2023/01/07 06:52:56;;;;;;;71.15;38.88;;;;;;;9.10;100.00;99543.88;5075102;28;20490;-92
2023/01/07 06:55:22;;;;;;;80.85;45.65;;;;;;;9.07;100.00;99528.88;5076968;28;20131;-93
2023/01/07 06:57:47;;;;;;;69.68;40.42;;;;;;;9.07;100.00;99528.88;5074356;28;20056;-92
2023/01/07 07:00:14;;;;;;;72.25;42.78;;;;;;;8.94;100.00;99512.16;5076699;28;20059;-92
2023/01/07 07:02:40;;;;;;;72.25;41.53;;;;;;;9.08;100.00;99535.03;5077425;28;20036;-94
2023/01/07 07:05:06;;;;;;;64.20;37.47;;;;;;;9.00;100.00;99525.38;5075068;28;20123;-93
2023/01/07 07:07:32;;;;;;;56.88;34.25;;;;;;;8.95;100.00;99511.25;5075132;28;20094;-92
2023/01/07 07:10:03;;;;;;;67.63;37.28;;;;;;;8.95;100.00;99508.63;5072898;28;20040;-93
2023/01/07 07:12:29;;;;;;;83.70;46.92;;;;;;;8.92;100.00;99516.59;5077505;28;20044;-92
2023/01/07 07:14:55;;;;;;;78.35;45.83;;;;;;;9.01;100.00;99526.25;5076915;28;20393;-95
2023/01/07 07:17:20;;;;;;;69.25;41.15;;;;;;;9.05;100.00;99534.19;5077831;28;20040;-92
2023/01/07 07:19:46;;;;;;;74.55;43.97;;;;;;;9.06;100.00;99527.09;5070401;28;20043;-91
2023/01/07 07:22:12;;;;;;;75.32;42.58;;;;;;;9.10;100.00;99538.56;5076657;28;20035;-91
2023/01/07 07:24:38;;;;;;;71.22;41.78;;;;;;;8.92;100.00;99503.34;5076467;28;20036;-92
2023/01/07 07:27:05;;;;;;;66.30;40.08;;;;;;;9.02;100.00;99518.31;5075803;28;20090;-94
2023/01/07 07:29:31;;;;;;;61.10;36.28;;;;;;;9.03;100.00;99519.16;5076657;28;20033;-94
2023/01/07 07:31:57;;;;;;;49.22;31.08;;;;;;;9.15;100.00;99542.94;5076394;28;20142;-93
2023/01/07 07:34:22;;;;;;;49.90;31.38;;;;;;;9.12;100.00;99537.66;5072717;28;20044;-93
2023/01/07 07:36:48;;;;;;;56.17;30.50;;;;;;;9.16;100.00;99543.81;5075234;28;20175;-94
2023/01/07 07:39:14;;;;;;;48.28;30.00;;;;;;;9.13;100.00;99542.09;5074218;28;20049;-93
2023/01/07 07:41:40;;;;;;;48.67;30.50;;;;;;;8.91;100.00;99512.19;5080036;28;20147;-93
2023/01/07 07:44:07;;;;;;;49.05;31.35;;;;;;;9.01;100.00;99540.41;5077362;28;20516;-92
2023/01/07 07:46:33;;;;;;;57.38;33.60;;;;;;;9.00;100.00;99527.13;5076740;28;20174;-93
2023/01/07 07:48:59;;;;;;;60.95;34.47;;;;;;;9.17;100.00;99546.47;5077443;28;20041;-93
2023/01/07 07:51:25;;;;;;;56.70;34.65;;;;;;;9.16;100.00;99544.69;5074887;28;20402;-93
2023/01/07 07:53:51;;;;;;;53.00;32.72;;;;;;;9.12;100.00;99524.38;5078174;28;20048;-93
2023/01/07 07:56:19;;;;;;;53.53;32.97;;;;;;;9.21;100.00;99531.38;5077609;28;20098;-93
2023/01/07 07:58:45;;;;;;;61.73;32.80;;;;;;;9.17;100.00;99530.56;5077736;28;20040;-90
2023/01/07 08:01:12;;;;;;;55.22;33.08;;;;;;;9.28;100.00;99545.47;5080292;28;20443;-92
2023/01/07 08:03:38;;;;;;;51.55;32.10;;;;;;;9.16;100.00;99527.91;5070332;28;20029;-92
2023/01/07 08:06:05;;;;;;;56.88;34.65;;;;;;;9.29;100.00;99549.91;5069974;28;20089;-91
2023/01/07 08:08:31;;;;;;;62.08;37.67;;;;;;;9.15;100.00;99521.72;5079080;28;20036;-93
2023/01/07 08:10:56;;;;;;;60.03;38.00;;;;;;;9.23;100.00;99526.94;5077833;28;20043;-94
2023/01/07 08:13:23;;;;;;;71.95;42.30;;;;;;;9.16;100.00;99510.19;5078359;28;20437;-94
2023/01/07 08:15:48;;;;;;;66.70;40.65;;;;;;;9.32;100.00;99544.56;5077152;28;20036;-93
2023/01/07 08:18:17;;;;;;;65.90;41.90;;;;;;;9.32;100.00;99536.59;5073934;28;20098;-93
2023/01/07 08:20:43;;;;;;;;;;;;;;;9.50;100.00;99562.06;5077794;28;20052;-94
2023/01/07 08:23:09;;;;;;;76.68;40.05;;;;;;;9.35;100.00;99528.63;5078335;28;19920;-94
2023/01/07 08:25:36;;;;;;;68.05;39.78;;;;;;;9.51;100.00;99555.88;5079075;28;20100;-93
2023/01/07 08:28:02;;;;;;;68.68;40.67;;;;;;;9.53;100.00;99556.75;5076945;28;20086;-93
2023/01/07 08:30:29;;;;;;;75.22;41.05;;;;;;;9.56;100.00;99564.66;5077576;28;20060;-93
2023/01/07 08:32:56;;;;;;;66.05;38.83;;;;;;;9.44;100.00;99544.44;5076341;28;20047;-94
2023/01/07 08:35:23;;;;;;;61.47;37.28;;;;;;;9.59;100.00;99562.88;5076941;28;20093;-92
2023/01/07 08:37:49;;;;;;;58.00;36.45;;;;;;;9.63;100.00;99561.94;5080041;28;20513;-92
2023/01/07 08:40:15;;;;;;;56.70;33.40;;;;;;;9.55;100.00;99550.50;5077348;28;20048;-92
2023/01/07 08:42:41;;;;;;;53.30;32.70;;;;;;;9.70;100.00;99568.06;5074012;28;20799;-94
2023/01/07 08:45:09;;;;;;;45.85;29.98;;;;;;;9.66;100.00;99561.91;5077944;28;20041;-92
2023/01/07 08:47:35;;;;;;;50.80;31.70;;;;;;;9.57;100.00;99550.50;5078442;28;20036;-91
2023/01/07 08:50:01;;;;;;;56.65;34.33;;;;;;;9.69;100.00;99568.06;5075150;28;20082;-93
2023/01/07 08:52:29;;;;;;;59.83;35.92;;;;;;;9.74;100.00;99572.44;5080342;28;20447;-92
2023/01/07 08:54:55;;;;;;;60.35;37.08;;;;;;;9.72;100.00;99571.59;5076194;28;20047;-93
2023/01/07 08:57:20;;;;;;;61.85;37.78;;;;;;;9.77;100.00;99572.41;5078496;28;20041;-94
2023/01/07 08:59:46;;;;;;;67.88;39.08;;;;;;;9.77;100.00;99566.22;5088921;28;20505;-93
2023/01/07 09:02:14;;;;;;;60.15;37.63;;;;;;;9.77;100.00;99553.81;5080717;28;20102;-92
2023/01/07 09:04:40;;;;;;;64.57;37.28;;;;;;;9.79;100.00;99554.69;5075009;28;20032;-93
2023/01/07 09:07:06;;;;;;;57.38;36.28;;;;;;;9.85;100.00;99575.88;5078136;28;20040;-91
2023/01/07 09:09:34;;;;;;;62.08;36.22;;;;;;;9.79;100.00;99556.47;5079184;28;20520;-92
2023/01/07 09:12:00;;;;;;;56.22;34.90;;;;;;;9.94;100.00;99577.53;5077637;28;20044;-89
2023/01/07 09:14:26;;;;;;;58.95;34.60;;;;;;;9.92;100.00;99562.53;5079442;28;20375;-92
2023/01/07 09:16:51;;;;;;;55.17;34.35;;;;;;;10.05;100.00;99577.41;5074529;28;20039;-92
2023/01/07 09:19:17;;;;;;;59.30;35.10;;;;;;;10.07;100.00;99576.50;5079607;28;20040;-92
2023/01/07 09:21:43;;;;;;;55.15;34.15;;;;;;;10.13;100.00;99577.31;5078090;28;20048;-91
2023/01/07 09:24:09;;;;;;;57.63;35.88;;;;;;;10.11;100.00;99563.19;5074287;28;20089;-91
2023/01/07 09:26:36;;;;;;;60.63;35.25;;;;;;;10.20;100.00;99571.91;5079508;28;20064;-91
2023/01/07 09:29:02;;;;;;;65.47;37.50;;;;;;;10.19;100.00;99561.28;5082958;28;20044;-92
2023/01/07 09:31:28;;;;;;;58.47;34.40;;;;;;;10.22;100.00;99562.13;5075291;28;20124;-92
2023/01/07 09:33:54;;;;;;;56.17;34.58;;;;;;;10.33;100.00;99559.38;5079239;28;20131;-92
2023/01/07 09:36:20;;;;;;;65.63;39.17;;;;;;;10.41;100.00;99568.13;5081857;28;20045;-93
2023/01/07 09:38:46;;;;;;;67.65;41.42;;;;;;;10.32;100.00;99541.66;5075748;28;20033;-90
2023/01/07 09:41:26;;;;;;;65.70;40.88;;;;;;;10.61;100.00;99575.81;5079565;28;20123;-94
2023/01/07 09:43:58;;;;;;;70.88;43.60;;;;;;;10.53;100.00;99547.56;5075503;28;20044;-92
2023/01/07 09:46:25;;;;;;;72.85;41.97;;;;;;;10.68;100.00;99581.94;5072986;28;20528;-92
2023/01/07 09:48:56;;;;;;;66.40;41.28;;;;;;;10.55;100.00;99543.13;5081827;28;20465;-93
2023/01/07 09:51:27;;;;;;;67.57;41.15;;;;;;;10.53;100.00;99532.50;5075466;28;20039;-93
2023/01/07 09:53:56;;;;;;;67.50;39.88;;;;;;;10.63;100.00;99541.22;5077566;28;20515;-92
2023/01/07 09:56:25;;;;;;;60.13;36.42;;;;;;;10.61;100.00;99517.31;5078043;28;20138;-92
2023/01/07 09:58:55;;;;;;;55.92;33.28;;;;;;;10.77;100.00;99543.66;5080351;28;20049;-93
2023/01/07 10:01:30;;;;;;;54.97;35.63;;;;;;;10.89;100.00;99551.47;5074479;28;20452;-93
2023/01/07 10:04:11;;;;;;;61.00;35.65;;;;;;;11.03;100.00;99553.91;5078455;28;20512;-92
2023/01/07 10:06:45;;;;;;;57.17;36.67;;;;;;;10.90;100.00;99519.50;5080274;28;20035;-94
2023/01/07 10:09:24;;;;;;;64.70;38.60;;;;;;;11.19;100.00;99543.84;5076305;28;20072;-93
2023/01/07 10:11:59;;;;;;;;;;;;;;;11.30;100.00;99555.22;5077815;28;20036;-93
2023/01/07 10:14:44;;;;;;;68.03;37.92;;;;;;;11.24;100.00;99526.91;5074320;28;20404;-93
2023/01/07 10:17:20;;;;;;;68.88;38.72;;;;;;;11.43;100.00;99545.25;5075415;28;20433;-93
2023/01/07 10:19:56;;;;;;;63.58;36.63;;;;;;;11.35;100.00;99526.72;5078592;28;20040;-93
2023/01/07 10:22:29;;;;;;;64.93;37.55;;;;;;;11.21;100.00;99504.78;5078553;28;20041;-93
2023/01/07 10:25:00;;;;;;;63.97;37.03;;;;;;;11.39;100.00;99532.88;5084099;28;20448;-93
2023/01/07 10:27:31;;;;;;;63.10;38.47;;;;;;;11.37;100.00;99530.25;5076350;28;20503;-92
2023/01/07 10:30:02;;;;;;;56.72;33.53;;;;;;;11.39;100.00;99538.22;5079516;28;20044;-92
2023/01/07 10:32:31;;;;;;;58.00;34.17;;;;;;;11.39;100.00;99543.53;5080447;28;20068;-94
2023/01/07 10:34:58;;;;;;;55.80;34.50;;;;;;;11.29;100.00;99513.50;5084192;28;20044;-94
2023/01/07 10:37:28;;;;;;;62.08;34.92;;;;;;;11.26;100.00;99501.16;5079445;28;20086;-90
2023/01/07 10:40:02;;;;;;;56.80;34.17;;;;;;;11.42;100.00;99511.50;5077433;28;20048;-94
2023/01/07 10:42:34;;;;;;;58.80;36.20;;;;;;;11.42;100.00;99498.19;5080984;28;20052;-94
2023/01/07 10:45:21;;;;;;;57.75;33.30;;;;;;;11.49;100.00;99484.75;5076988;28;20108;-92
2023/01/07 10:48:04;;;;;;;53.47;31.83;;;;;;;11.73;100.00;99517.13;5081548;28;20066;-94
2023/01/07 10:50:59;;;;;;;51.67;31.00;;;;;;;11.75;100.00;99517.09;5083873;28;20051;-90
2023/01/07 10:53:35;;;;;;;51.40;29.92;;;;;;;11.77;100.00;99516.16;5070138;28;20159;-94
2023/01/07 10:56:15;;;;;;;48.58;28.60;;;;;;;11.77;99.09;99493.97;5078146;28;20367;-92
2023/01/07 10:58:44;;;;;;;48.50;27.88;;;;;;;11.61;97.80;99464.09;5082755;28;20094;-92
2023/01/07 11:01:21;;;;;;;47.88;31.20;;;;;;;11.80;98.22;99492.13;5079919;28;20139;-93
2023/01/07 11:03:49;;;;;;;49.28;30.73;;;;;;;11.76;98.06;99476.22;5111942;27;20098;-93
2023/01/07 11:06:18;;;;;;;45.85;28.95;;;;;;;11.72;97.51;99462.09;5086499;28;20068;-93
2023/01/07 11:08:44;;;;;;;59.85;32.47;;;;;;;11.78;97.23;99479.75;5083073;28;20047;-94
2023/01/07 11:11:14;;;;;;;56.67;32.80;;;;;;;11.69;97.98;99455.03;5086427;28;20062;-93
2023/01/07 11:13:45;;;;;;;56.05;33.72;;;;;;;11.70;98.18;99463.91;5082581;28;20064;-93
2023/01/07 11:16:19;;;;;;;56.92;34.15;;;;;;;11.67;98.97;99464.84;5076687;28;20045;-94
2023/01/07 11:18:51;;;;;;;59.58;34.75;;;;;;;11.70;99.09;99464.78;5081508;28;20115;-92
2023/01/07 11:21:31;;;;;;;61.10;35.30;;;;;;;11.72;98.55;99456.75;5082282;28;20044;-93
2023/01/07 11:23:57;;;;;;;60.20;35.10;;;;;;;11.64;99.49;99453.38;5082116;28;20052;-92
2023/01/07 11:26:25;;;;;;;62.15;36.42;;;;;;;11.81;99.67;99474.34;5080776;28;20044;-93
2023/01/07 11:28:53;;;;;;;63.42;38.70;;;;;;;11.78;99.89;99455.75;5073726;28;20055;-92
2023/01/07 11:31:22;;;;;;;62.75;37.45;;;;;;;11.90;99.41;99474.16;5075576;28;20042;-92